Time;durP1;ratioP1;P1;durP2;ratioP2;P2;SDS_P1;SDS_P2;PMS_P1;PMS_P2;Temp;Humidity;BMP_temperature;BMP_pressure;BME280_temperature;BME280_humidity;BME280_pressure;Samples;Min_cycle;Max_cycle;Signal;HPM_P1;HPM_P2
2022/06/23 00:00:28;;;;;;;23.17;17.15;;;20.50;99.90;;;;;;5098168;28;20469;-73
2022/06/23 00:02:58;;;;;;;17.85;15.50;;;20.40;99.90;;;;;;5100110;28;20072;-73
2022/06/23 00:05:29;;;;;;;18.02;16.10;;;20.40;99.90;;;;;;5101124;28;20041;-74
2022/06/23 00:08:00;;;;;;;23.70;15.90;;;20.30;99.90;;;;;;5101547;28;20044;-72
2022/06/23 00:10:34;;;;;;;20.23;15.73;;;20.20;99.90;;;;;;5101203;28;20021;-74
2022/06/23 00:13:03;;;;;;;20.02;15.88;;;20.10;99.90;;;;;;5083694;28;20059;-74
2022/06/23 00:15:38;;;;;;;17.70;15.35;;;20.10;99.90;;;;;;5099465;28;20040;-73
2022/06/23 00:18:14;;;;;;;20.58;15.85;;;20.10;99.90;;;;;;5099151;28;20063;-73
2022/06/23 00:20:48;;;;;;;19.90;15.65;;;20.10;99.90;;;;;;5098824;28;20063;-73
2022/06/23 00:23:18;;;;;;;21.60;16.30;;;20.20;99.90;;;;;;5099182;28;20070;-74
2022/06/23 00:25:49;;;;;;;19.95;15.48;;;20.20;99.90;;;;;;5099899;28;20024;-73
2022/06/23 00:28:43;;;;;;;17.65;15.27;;;20.30;99.90;;;;;;5100473;28;20043;-73
2022/06/23 00:31:25;;;;;;;20.08;15.95;;;20.30;99.90;;;;;;5083997;28;20054;-75
2022/06/23 00:33:53;;;;;;;19.42;15.48;;;20.40;99.90;;;;;;5100730;28;20024;-74
2022/06/23 00:36:31;;;;;;;17.33;15.23;;;20.40;99.90;;;;;;5101459;28;20020;-74
2022/06/23 00:38:59;;;;;;;18.00;15.10;;;20.30;99.90;;;;;;5101143;28;20021;-74
2022/06/23 00:41:31;;;;;;;19.95;15.70;;;20.30;99.90;;;;;;5100082;28;20039;-74
2022/06/23 00:44:05;;;;;;;19.65;16.08;;;20.30;99.90;;;;;;5100187;28;20023;-74
2022/06/23 00:46:38;;;;;;;16.98;15.18;;;20.30;99.90;;;;;;5091467;28;20067;-74
2022/06/23 00:49:15;;;;;;;19.38;15.10;;;20.30;99.90;;;;;;5088814;28;20101;-74
2022/06/23 00:51:47;;;;;;;22.80;15.85;;;20.30;99.90;;;;;;5097177;28;20025;-74
2022/06/23 00:54:20;;;;;;;19.80;15.57;;;20.30;99.90;;;;;;5094654;28;20458;-74
2022/06/23 00:56:55;;;;;;;18.63;15.10;;;20.20;99.90;;;;;;5066989;28;20049;-73
2022/06/23 00:59:32;;;;;;;18.92;15.77;;;20.20;99.90;;;;;;5059510;28;20055;-73
2022/06/23 01:02:05;;;;;;;18.42;15.75;;;20.20;99.90;;;;;;5076001;28;20052;-75
2022/06/23 01:04:41;;;;;;;20.95;15.98;;;20.30;99.90;;;;;;5075302;28;20434;-74
2022/06/23 01:07:32;;;;;;;23.67;16.95;;;20.20;99.90;;;;;;5075453;28;20067;-74
2022/06/23 01:10:05;;;;;;;23.02;16.42;;;20.20;99.90;;;;;;5075477;28;20496;-74
2022/06/23 01:12:41;;;;;;;23.67;17.20;;;20.10;99.90;;;;;;5074944;28;20068;-73
2022/06/23 01:15:24;;;;;;;21.05;16.33;;;20.10;99.90;;;;;;5075129;28;20045;-73
2022/06/23 01:17:57;;;;;;;20.88;16.13;;;20.10;99.90;;;;;;5074935;28;20384;-74
2022/06/23 01:20:46;;;;;;;25.05;16.23;;;20.10;99.90;;;;;;5075135;28;20044;-74
2022/06/23 01:23:36;;;;;;;21.77;16.05;;;20.10;99.90;;;;;;5074911;28;20044;-74
2022/06/23 01:26:37;;;;;;;22.52;16.77;;;20.00;99.90;;;;;;5062367;28;20056;-74
2022/06/23 01:29:11;;;;;;;38.10;27.05;;;20.00;99.90;;;;;;5061136;28;20102;-74
2022/06/23 01:31:43;;;;;;;20.75;16.17;;;20.10;99.90;;;;;;5074810;28;20037;-74
2022/06/23 01:34:22;;;;;;;26.73;16.98;;;20.10;99.90;;;;;;5074388;28;20048;-73
2022/06/23 01:36:56;;;;;;;24.55;17.40;;;20.10;99.90;;;;;;5074598;28;20041;-74
2022/06/23 01:39:29;;;;;;;22.75;17.15;;;20.00;99.90;;;;;;5074644;28;20059;-74
2022/06/23 01:42:01;;;;;;;20.95;16.08;;;20.00;99.90;;;;;;5055698;28;20044;-73
2022/06/23 01:44:41;;;;;;;19.67;16.23;;;20.10;99.90;;;;;;5073797;28;20040;-74
2022/06/23 01:47:20;;;;;;;20.80;16.17;;;20.10;99.90;;;;;;5074742;28;20041;-73
2022/06/23 01:49:53;;;;;;;20.65;17.42;;;20.10;99.90;;;;;;5095358;28;20044;-73
2022/06/23 01:52:22;;;;;;;19.23;16.40;;;20.20;99.90;;;;;;5082090;28;20083;-75
2022/06/23 01:54:54;;;;;;;26.15;17.05;;;20.10;99.90;;;;;;5074281;28;20048;-73
2022/06/23 01:57:29;;;;;;;21.80;16.30;;;20.10;99.90;;;;;;5074011;28;20194;-75
2022/06/23 02:00:09;;;;;;;20.67;15.90;;;20.00;99.90;;;;;;5083339;28;20048;-73
2022/06/23 02:02:50;;;;;;;21.38;16.92;;;20.00;99.90;;;;;;5088928;22;20313;-76
2022/06/23 02:05:27;;;;;;;19.48;16.00;;;20.10;99.90;;;;;;5093905;28;20032;-76
2022/06/23 02:08:01;;;;;;;22.88;15.82;;;20.10;99.90;;;;;;5093843;28;20040;-75
2022/06/23 02:10:32;;;;;;;22.23;15.82;;;20.20;99.90;;;;;;5075838;28;20048;-75
2022/06/23 02:13:12;;;;;;;20.17;14.45;;;20.20;99.90;;;;;;5093626;28;20081;-75
2022/06/23 02:15:51;;;;;;;22.88;15.07;;;20.20;99.90;;;;;;5075782;28;20429;-75
2022/06/23 02:18:24;;;;;;;21.58;14.95;;;20.30;99.90;;;;;;5073715;28;20044;-75
2022/06/23 02:21:05;;;;;;;20.27;14.68;;;20.30;99.90;;;;;;5055705;28;20090;-75
2022/06/23 02:23:39;;;;;;;18.27;14.32;;;20.20;99.90;;;;;;5084352;28;20410;-75
2022/06/23 02:26:16;;;;;;;20.40;14.65;;;20.20;99.90;;;;;;5093798;28;20052;-75
2022/06/23 02:28:50;;;;;;;20.63;14.55;;;20.30;99.90;;;;;;5077344;28;20036;-75
2022/06/23 02:31:24;;;;;;;21.70;14.30;;;20.30;99.90;;;;;;5090492;28;20040;-75
2022/06/23 02:33:56;;;;;;;18.58;14.73;;;20.30;99.90;;;;;;5093282;28;20384;-76
2022/06/23 02:36:37;;;;;;;22.88;15.50;;;20.40;99.90;;;;;;5092403;28;20048;-75
2022/06/23 02:39:07;;;;;;;25.33;18.08;;;20.40;99.90;;;;;;5093276;28;20121;-76
2022/06/23 02:41:39;;;;;;;22.73;16.65;;;20.50;99.90;;;;;;5093243;28;20479;-75
2022/06/23 02:44:24;;;;;;;21.90;15.80;;;20.40;99.90;;;;;;5075264;28;20520;-75
2022/06/23 02:47:10;;;;;;;21.60;15.73;;;20.40;99.90;;;;;;5094108;28;20559;-75
2022/06/23 02:50:03;;;;;;;26.67;16.42;;;20.40;99.90;;;;;;5075192;28;20044;-75
2022/06/23 02:53:03;;;;;;;20.80;17.15;;;20.40;99.90;;;;;;5093055;28;20098;-76
2022/06/23 02:55:47;;;;;;;20.65;16.70;;;20.40;99.90;;;;;;5069403;28;20507;-75
2022/06/23 02:58:20;;;;;;;21.95;17.85;;;20.40;99.90;;;;;;5092860;28;20044;-75
2022/06/23 03:00:56;;;;;;;18.80;16.70;;;20.40;99.90;;;;;;5103120;28;20039;-75
2022/06/23 03:03:32;;;;;;;25.27;16.05;;;20.40;99.90;;;;;;5109955;28;20072;-75
2022/06/23 03:06:04;;;;;;;23.05;15.48;;;20.50;99.90;;;;;;5112258;28;20044;-75
2022/06/23 03:08:38;;;;;;;21.48;15.65;;;20.50;99.90;;;;;;5098834;28;20089;-76
2022/06/23 03:11:10;;;;;;;21.77;16.42;;;20.50;99.90;;;;;;5101261;28;20111;-76
2022/06/23 03:13:45;;;;;;;20.58;16.85;;;20.50;99.90;;;;;;5096262;28;20032;-76
2022/06/23 03:16:22;;;;;;;22.90;16.43;;;20.50;99.90;;;;;;5097591;28;20040;-76
2022/06/23 03:18:57;;;;;;;20.65;16.75;;;20.50;99.90;;;;;;5080863;28;20292;-76
2022/06/23 03:21:29;;;;;;;18.75;15.52;;;20.60;99.90;;;;;;5087994;28;20044;-76
2022/06/23 03:24:04;;;;;;;19.20;16.25;;;20.60;99.90;;;;;;5097297;28;20052;-75
2022/06/23 03:26:39;;;;;;;19.48;16.80;;;20.50;99.90;;;;;;5097393;28;20032;-76
2022/06/23 03:29:12;;;;;;;20.85;16.42;;;20.30;99.90;;;;;;5097109;28;20052;-76
2022/06/23 03:31:45;;;;;;;24.00;18.63;;;20.40;99.90;;;;;;5097216;28;20047;-75
2022/06/23 03:34:20;;;;;;;24.23;17.52;;;20.20;99.90;;;;;;5087081;28;20048;-76
2022/06/23 03:36:52;;;;;;;22.52;17.02;;;20.20;99.90;;;;;;5095623;28;20134;-75
2022/06/23 03:42:15;;;;;;;24.45;17.95;;;20.20;99.90;;;;;;5079241;28;20490;-75
2022/06/23 03:44:52;;;;;;;24.58;18.50;;;20.20;99.90;;;;;;5096936;28;20086;-76
2022/06/23 03:47:27;;;;;;;26.63;19.90;;;20.10;99.90;;;;;;5078801;28;20461;-75
2022/06/23 03:50:00;;;;;;;23.67;18.57;;;20.20;99.90;;;;;;5096095;28;20486;-75
2022/06/23 03:52:38;;;;;;;24.10;20.00;;;20.20;99.90;;;;;;5096035;28;20285;-76
2022/06/23 03:55:18;;;;;;;23.58;17.90;;;20.30;99.90;;;;;;5094364;28;20432;-76
2022/06/23 03:57:53;;;;;;;25.65;16.98;;;20.40;99.90;;;;;;5075007;28;20040;-75
2022/06/23 04:00:32;;;;;;;23.45;16.05;;;20.40;99.90;;;;;;5097459;28;20050;-75
2022/06/23 04:03:23;;;;;;;21.23;15.75;;;20.50;99.90;;;;;;5096295;28;20093;-76
2022/06/23 04:06:22;;;;;;;21.52;15.98;;;20.70;99.90;;;;;;5090906;28;20502;-76
2022/06/23 04:08:58;;;;;;;29.10;15.73;;;21.00;99.90;;;;;;5064430;28;20056;-75
2022/06/23 04:11:44;;;;;;;22.55;16.58;;;21.10;99.90;;;;;;5093285;28;20040;-75
2022/06/23 04:14:14;;;;;;;18.90;14.80;;;21.20;99.90;;;;;;5096129;28;20058;-75
2022/06/23 04:16:41;;;;;;;23.20;15.23;;;21.20;99.90;;;;;;5096369;28;20044;-75
2022/06/23 04:19:15;;;;;;;20.25;15.20;;;21.20;99.90;;;;;;5096138;28;20066;-76
2022/06/23 04:21:49;;;;;;;22.20;14.70;;;21.30;99.90;;;;;;5096008;28;20040;-76
2022/06/23 04:24:20;;;;;;;20.20;14.60;;;21.40;99.90;;;;;;5095033;28;20040;-75
2022/06/23 04:26:52;;;;;;;17.70;14.88;;;21.50;99.90;;;;;;5096116;28;20036;-76
2022/06/23 04:29:27;;;;;;;20.60;14.55;;;21.60;99.90;;;;;;5096103;28;20536;-76
2022/06/23 04:31:58;;;;;;;19.55;15.02;;;21.60;99.90;;;;;;5094330;28;20479;-75
2022/06/23 04:34:30;;;;;;;23.52;14.13;;;21.60;99.90;;;;;;5095751;28;20499;-75
2022/06/23 04:36:59;;;;;;;20.63;15.98;;;21.60;99.90;;;;;;5094375;28;20101;-76
2022/06/23 04:39:33;;;;;;;20.20;14.77;;;21.60;99.90;;;;;;5095972;28;20360;-75
2022/06/23 04:42:10;;;;;;;26.02;15.48;;;21.90;99.90;;;;;;5076811;28;20084;-75
2022/06/23 04:44:44;;;;;;;20.25;14.55;;;21.90;99.90;;;;;;5095595;28;20040;-76
2022/06/23 04:47:16;;;;;;;21.45;14.10;;;22.00;99.90;;;;;;5095501;28;20328;-76
2022/06/23 04:49:48;;;;;;;19.55;14.57;;;22.00;99.90;;;;;;5095497;28;20085;-76
2022/06/23 04:52:20;;;;;;;17.52;14.77;;;22.10;99.90;;;;;;5095631;28;20040;-75
2022/06/23 04:54:54;;;;;;;23.95;14.23;;;22.40;99.90;;;;;;5095275;28;20051;-75
2022/06/23 04:57:26;;;;;;;19.25;12.90;;;23.00;99.90;;;;;;5095296;28;20058;-76
2022/06/23 04:59:55;;;;;;;16.65;12.55;;;24.00;99.90;;;;;;5095272;28;20040;-76
2022/06/23 05:02:29;;;;;;;16.73;12.00;;;25.10;1.00;;;;;;5094423;28;20040;-76
2022/06/23 05:05:04;;;;;;;15.23;10.93;;;25.90;1.00;;;;;;5095484;28;20044;-76
2022/06/23 05:07:41;;;;;;;16.30;10.98;;;26.80;99.90;;;;;;5094909;28;20094;-75
2022/06/23 05:10:17;;;;;;;17.20;10.38;;;27.80;99.90;;;;;;5093444;28;20085;-76
2022/06/23 05:12:50;;;;;;;15.98;12.05;;;28.40;1.00;;;;;;5094537;28;20081;-76
2022/06/23 05:15:22;;;;;;;15.15;10.70;;;28.70;1.00;;;;;;5075060;28;20048;-77
2022/06/23 05:17:53;;;;;;;18.58;11.43;;;28.10;1.00;;;;;;5093263;28;20482;-76
2022/06/23 05:20:31;;;;;;;17.23;11.52;;;27.50;1.00;;;;;;5093750;28;20028;-76
2022/06/23 05:23:02;;;;;;;18.83;11.88;;;27.00;1.00;;;;;;5094072;28;20485;-76
2022/06/23 05:25:43;;;;;;;20.15;12.32;;;26.60;89.70;;;;;;5094462;28;20036;-76
2022/06/23 05:28:15;;;;;;;20.42;13.57;;;26.10;1.00;;;;;;5094847;28;20040;-76
2022/06/23 05:30:50;;;;;;;15.18;11.82;;;25.90;1.00;;;;;;5094978;28;20097;-76
2022/06/23 05:33:22;;;;;;;23.02;13.82;;;25.80;99.90;;;;;;5093604;28;20040;-76
2022/06/23 05:35:52;;;;;;;18.35;13.38;;;25.70;99.90;;;;;;5075486;28;20568;-76
2022/06/23 05:38:30;;;;;;;22.08;13.60;;;25.70;44.00;;;;;;5093741;28;20043;-76
2022/06/23 05:41:02;;;;;;;18.88;12.07;;;26.60;99.90;;;;;;5060508;28;20048;-76
2022/06/23 05:43:34;;;;;;;18.88;11.68;;;27.70;99.90;;;;;;5057723;28;20140;-76
2022/06/23 05:46:04;;;;;;;17.92;11.60;;;28.30;1.00;;;;;;5094277;28;20040;-76
2022/06/23 05:48:35;;;;;;;17.98;12.32;;;28.50;1.00;;;;;;5075459;28;20555;-76
2022/06/23 05:51:08;;;;;;;23.48;12.57;;;28.60;1.00;;;;;;5092994;28;20036;-76
2022/06/23 05:53:42;;;;;;;19.27;11.85;;;28.90;1.00;;;;;;5086082;28;20088;-77
2022/06/23 05:56:15;;;;;;;16.08;12.00;;;29.10;1.00;;;;;;5093860;28;20089;-76
2022/06/23 05:58:47;;;;;;;20.77;12.80;;;29.20;1.00;;;;;;5094032;28;20555;-76
2022/06/23 06:01:21;;;;;;;19.75;13.25;;;28.80;99.90;;;;;;5093239;28;20060;-77
2022/06/23 06:03:54;;;;;;;23.90;14.35;;;28.50;1.00;;;;;;5090729;28;20448;-77
2022/06/23 06:06:22;;;;;;;22.45;14.02;;;28.00;1.00;;;;;;5091236;28;20538;-76
2022/06/23 06:11:46;;;;;;;18.85;13.52;;;27.60;1.00;;;;;;5065216;28;20634;-76
2022/06/23 06:14:14;;;;;;;19.40;14.43;;;27.50;99.90;;;;;;5091243;28;20081;-76
2022/06/23 06:16:42;;;;;;;19.48;14.32;;;27.10;99.90;;;;;;5091499;28;20407;-76
2022/06/23 06:19:13;;;;;;;20.27;15.13;;;27.00;99.90;;;;;;5092999;28;20101;-76
2022/06/23 06:21:41;;;;;;;22.38;14.77;;;26.70;1.00;;;;;;5093503;28;20093;-75
2022/06/23 06:24:18;;;;;;;22.38;15.90;;;26.50;1.00;;;;;;5074610;28;20093;-76
2022/06/23 06:26:50;;;;;;;25.85;17.00;;;26.70;99.90;;;;;;5093538;28;20048;-76
2022/06/23 06:29:20;;;;;;;24.17;17.58;;;26.90;2.60;;;;;;5075165;28;20055;-76
2022/06/23 06:31:52;;;;;;;29.98;19.73;;;27.10;99.90;;;;;;5093582;28;20047;-76
2022/06/23 06:34:31;;;;;;;34.88;19.40;;;27.30;99.90;;;;;;5092988;28;20440;-76
2022/06/23 06:36:59;;;;;;;33.38;23.17;;;27.50;80.80;;;;;;5092962;28;20101;-76
2022/06/23 06:39:31;;;;;;;37.95;19.55;;;27.60;1.00;;;;;;5075119;28;20491;-76
2022/06/23 06:42:01;;;;;;;33.20;17.90;;;27.90;1.00;;;;;;5093301;28;20519;-77
2022/06/23 06:44:30;;;;;;;25.95;19.90;;;28.50;1.00;;;;;;5093382;28;20040;-76
2022/06/23 06:46:57;;;;;;;26.17;18.63;;;28.70;1.00;;;;;;5092841;28;20044;-77
2022/06/23 06:49:28;;;;;;;30.30;21.77;;;28.40;1.00;;;;;;5092809;28;20097;-76
2022/06/23 06:51:58;;;;;;;26.20;18.73;;;28.30;1.00;;;;;;5074842;28;20090;-76
2022/06/23 06:54:31;;;;;;;35.38;24.35;;;28.00;1.00;;;;;;5092625;28;20487;-75
2022/06/23 06:57:04;;;;;;;22.98;19.02;;;27.40;99.90;;;;;;5093284;28;20040;-75
2022/06/23 06:59:38;;;;;;;34.33;18.52;;;27.60;99.90;;;;;;5093886;28;20036;-76
2022/06/23 07:02:13;;;;;;;34.42;18.58;;;27.90;84.90;;;;;;5093187;28;20032;-76
2022/06/23 07:04:47;;;;;;;37.88;21.13;;;28.00;99.90;;;;;;5072761;28;20110;-76
2022/06/23 07:07:21;;;;;;;28.50;20.13;;;28.40;99.90;;;;;;5071900;28;20044;-76
2022/06/23 07:09:55;;;;;;;29.73;20.88;;;28.30;99.90;;;;;;5073023;28;20044;-76
2022/06/23 07:12:27;;;;;;;;;;;28.30;99.90;;;;;;5073271;28;20047;-76
2022/06/23 07:15:02;;;;;;;20.77;15.15;;;27.90;99.90;;;;;;5071733;28;19921;-76
2022/06/23 07:17:34;;;;;;;23.13;15.52;;;28.00;99.90;;;;;;5073423;28;20040;-77
2022/06/23 07:20:07;;;;;;;27.80;15.70;;;28.00;1.00;;;;;;5072767;28;20049;-76
2022/06/23 07:22:40;;;;;;;28.85;17.88;;;28.20;1.00;;;;;;5072597;28;20045;-76
2022/06/23 07:25:15;;;;;;;24.27;16.17;;;28.20;1.00;;;;;;5072890;28;20549;-76
2022/06/23 07:27:45;;;;;;;26.30;16.73;;;28.10;13.20;;;;;;5073017;28;20450;-77
2022/06/23 07:30:16;;;;;;;21.73;14.70;;;28.00;99.90;;;;;;5073185;28;20102;-77
2022/06/23 07:32:51;;;;;;;21.52;14.55;;;27.90;99.90;;;;;;5072433;28;20094;-76
2022/06/23 07:35:27;;;;;;;25.75;14.93;;;28.30;67.50;;;;;;5071465;28;20059;-77
2022/06/23 07:38:00;;;;;;;25.58;16.33;;;28.60;99.90;;;;;;5073285;28;20525;-77
2022/06/23 07:40:34;;;;;;;22.10;14.95;;;29.00;99.90;;;;;;5073033;28;20047;-77
2022/06/23 07:43:08;;;;;;;21.13;13.55;;;29.00;1.00;;;;;;5071329;28;20107;-77
2022/06/23 07:45:42;;;;;;;17.70;13.32;;;29.30;1.00;;;;;;5072461;28;20040;-77
2022/06/23 07:48:09;;;;;;;19.05;13.45;;;29.40;1.00;;;;;;5073202;28;20041;-77
2022/06/23 07:50:37;;;;;;;16.60;12.23;;;29.90;1.00;;;;;;5072613;28;20040;-77
2022/06/23 07:53:06;;;;;;;21.55;14.27;;;30.20;99.90;;;;;;5072437;28;20033;-77
2022/06/23 07:55:38;;;;;;;16.67;13.45;;;30.20;1.00;;;;;;5072444;28;20036;-77
2022/06/23 07:58:06;;;;;;;18.40;13.00;;;30.10;99.90;;;;;;5072401;28;20052;-77
2022/06/23 08:00:38;;;;;;;21.02;12.00;;;29.90;1.00;;;;;;5075245;28;20036;-76
2022/06/23 08:03:11;;;;;;;30.58;14.32;;;29.70;1.00;;;;;;5085884;28;20063;-77
2022/06/23 08:05:43;;;;;;;25.88;14.55;;;29.90;99.90;;;;;;5099946;28;20141;-75
2022/06/23 08:08:18;;;;;;;22.63;14.80;;;30.40;1.00;;;;;;5099085;28;20044;-77
2022/06/23 08:10:48;;;;;;;20.80;13.75;;;30.60;1.00;;;;;;5099029;28;20040;-76
2022/06/23 08:13:19;;;;;;;21.05;12.25;;;30.80;99.90;;;;;;5079782;28;20048;-76
2022/06/23 08:18:40;;;;;;;18.00;12.93;;;29.80;99.90;;;;;;5096551;28;20044;-76
2022/06/23 08:21:14;;;;;;;22.67;13.80;;;29.70;99.90;;;;;;5078256;28;20090;-76
2022/06/23 08:23:47;;;;;;;20.03;13.30;;;29.90;99.90;;;;;;5095954;28;20119;-76
2022/06/23 08:26:17;;;;;;;21.85;13.50;;;30.10;99.90;;;;;;5095887;28;20089;-76
2022/06/23 08:28:45;;;;;;;26.52;11.77;;;29.90;99.90;;;;;;5096074;28;20040;-76
2022/06/23 08:31:13;;;;;;;14.02;11.18;;;29.50;99.90;;;;;;5095607;28;20356;-77
2022/06/23 08:33:41;;;;;;;15.40;11.85;;;29.20;99.90;;;;;;5095632;28;20115;-76
2022/06/23 08:36:12;;;;;;;17.88;11.50;;;29.10;99.90;;;;;;5096606;28;20044;-76
2022/06/23 08:38:44;;;;;;;13.20;11.35;;;29.00;99.90;;;;;;5096023;28;20051;-76
2022/06/23 08:41:22;;;;;;;17.35;12.32;;;29.10;99.90;;;;;;5096437;28;20039;-76
2022/06/23 08:43:56;;;;;;;16.42;11.80;;;29.40;99.90;;;;;;5076840;28;20073;-76
2022/06/23 08:46:29;;;;;;;23.23;12.00;;;29.30;99.90;;;;;;5077253;28;20457;-76
2022/06/23 08:49:03;;;;;;;15.07;11.00;;;29.20;99.90;;;;;;5094889;28;20059;-76
2022/06/23 08:51:45;;;;;;;13.68;11.30;;;28.70;99.90;;;;;;5095169;28;20044;-76
2022/06/23 08:54:21;;;;;;;14.10;11.02;;;28.50;99.90;;;;;;5094703;28;20092;-76
2022/06/23 08:57:03;;;;;;;14.45;11.80;;;28.50;99.90;;;;;;5095060;28;20073;-75
2022/06/23 08:59:38;;;;;;;14.65;12.38;;;28.50;99.90;;;;;;5094102;28;20097;-75
2022/06/23 09:02:12;;;;;;;20.20;13.15;;;28.80;99.90;;;;;;5094147;28;20340;-76
2022/06/23 09:04:51;;;;;;;14.02;10.85;;;29.10;99.90;;;;;;5074154;28;20349;-76
2022/06/23 09:07:34;;;;;;;20.25;10.43;;;29.70;99.90;;;;;;5073599;28;20086;-76
2022/06/23 09:10:13;;;;;;;19.42;14.35;;;29.90;99.90;;;;;;5074640;28;20488;-76
2022/06/23 09:12:47;;;;;;;18.27;12.05;;;30.00;99.90;;;;;;5074863;28;20037;-76
2022/06/23 09:15:43;;;;;;;16.13;12.18;;;29.70;99.90;;;;;;5074033;28;20036;-76
2022/06/23 09:18:47;;;;;;;17.83;12.60;;;29.40;99.90;;;;;;5073890;28;20048;-76
2022/06/23 09:21:43;;;;;;;14.80;12.07;;;29.40;99.90;;;;;;5074572;28;20094;-75
2022/06/23 09:24:34;;;;;;;18.38;13.07;;;29.50;99.90;;;;;;5074436;28;20028;-75
2022/06/23 09:27:12;;;;;;;15.63;13.55;;;29.10;99.90;;;;;;5074902;28;20403;-75
2022/06/23 09:29:56;;;;;;;18.52;14.18;;;28.70;99.90;;;;;;5073382;28;20473;-76
2022/06/23 09:32:51;;;;;;;17.25;14.63;;;28.40;99.90;;;;;;5062882;28;20040;-76
2022/06/23 09:35:47;;;;;;;17.08;15.27;;;28.20;99.90;;;;;;5072597;28;20139;-76
2022/06/23 09:38:53;;;;;;;19.67;15.38;;;27.50;99.90;;;;;;5058418;28;20037;-75
2022/06/23 09:41:43;;;;;;;20.33;14.02;;;27.80;99.90;;;;;;5059552;28;20056;-75
2022/06/23 09:44:39;;;;;;;17.75;14.07;;;27.90;99.90;;;;;;5073641;28;20063;-76
2022/06/23 09:47:49;;;;;;;20.60;14.57;;;28.20;99.90;;;;;;5059249;28;20045;-76
2022/06/23 09:50:40;;;;;;;16.63;14.77;;;28.20;99.90;;;;;;5072513;28;20558;-76
2022/06/23 09:53:39;;;;;;;18.35;15.55;;;28.40;99.90;;;;;;5071422;28;20056;-76
2022/06/23 09:56:47;;;;;;;20.77;14.25;;;28.20;99.90;;;;;;5056424;28;20086;-78
2022/06/23 09:59:56;;;;;;;19.88;14.15;;;28.20;99.90;;;;;;5066924;28;20097;-77
2022/06/23 10:02:36;;;;;;;17.02;15.10;;;27.90;99.90;;;;;;5074547;28;20555;-78
2022/06/23 10:05:17;;;;;;;15.07;13.57;;;27.50;99.90;;;;;;5094531;28;20549;-76
2022/06/23 10:08:07;;;;;;;16.77;14.30;;;27.70;99.90;;;;;;5094605;28;20491;-77
2022/06/23 10:10:48;;;;;;;17.50;14.25;;;27.80;99.90;;;;;;5074333;28;20041;-78
2022/06/23 10:13:34;;;;;;;17.70;14.85;;;27.90;99.90;;;;;;5074572;28;20102;-77
2022/06/23 10:16:13;;;;;;;22.70;15.25;;;28.00;99.90;;;;;;5090166;28;20502;-78
2022/06/23 10:19:08;;;;;;;18.80;14.65;;;28.50;99.90;;;;;;5094602;28;20067;-77
2022/06/23 10:21:48;;;;;;;17.15;14.15;;;28.50;99.90;;;;;;5097503;28;20070;-78
2022/06/23 10:24:47;;;;;;;15.93;14.15;;;28.90;99.90;;;;;;5094932;28;20036;-78
2022/06/23 10:27:36;;;;;;;16.35;13.63;;;29.00;99.90;;;;;;5096240;28;20413;-76
2022/06/23 10:30:19;;;;;;;17.80;13.63;;;28.70;99.90;;;;;;5096303;28;20027;-78
2022/06/23 10:33:25;;;;;;;20.80;18.05;;;29.10;99.90;;;;;;5078910;28;20048;-78
2022/06/23 10:36:27;;;;;;;15.68;13.52;;;29.30;99.90;;;;;;5055272;28;20056;-77
2022/06/23 10:39:05;;;;;;;18.15;14.25;;;29.20;99.90;;;;;;5075259;28;20059;-77
2022/06/23 10:42:17;;;;;;;17.75;14.73;;;29.00;99.90;;;;;;5094897;28;20078;-77
2022/06/23 10:45:11;;;;;;;17.10;15.30;;;28.50;99.90;;;;;;5028998;28;20110;-78
2022/06/23 10:48:06;;;;;;;16.15;14.45;;;28.90;99.90;;;;;;5086055;28;20056;-78
2022/06/23 10:50:44;;;;;;;19.27;14.77;;;29.00;99.90;;;;;;5077215;28;20071;-77
2022/06/23 10:53:42;;;;;;;20.38;15.23;;;28.90;99.90;;;;;;5076606;28;20047;-78
2022/06/23 10:56:38;;;;;;;15.38;13.88;;;29.50;99.90;;;;;;5079854;28;20040;-77
2022/06/23 10:59:26;;;;;;;19.77;15.20;;;29.60;99.90;;;;;;5095067;28;20032;-79
2022/06/23 11:02:18;;;;;;;15.77;14.15;;;29.60;99.90;;;;;;5100804;28;20044;-78
2022/06/23 11:05:32;;;;;;;20.85;15.93;;;29.60;99.90;;;;;;5096602;28;20070;-78
2022/06/23 11:08:24;;;;;;;15.85;14.15;;;29.50;99.90;;;;;;5054296;28;20060;-78
2022/06/23 11:11:18;;;;;;;16.10;12.93;;;29.20;99.90;;;;;;5076864;28;20051;-78
2022/06/23 11:13:52;;;;;;;17.10;13.82;;;28.70;99.90;;;;;;5092708;28;20048;-78
2022/06/23 11:16:30;;;;;;;15.95;13.43;;;28.40;99.90;;;;;;5074877;28;20048;-77
2022/06/23 11:19:10;;;;;;;16.98;15.30;;;28.10;99.90;;;;;;5086230;28;20035;-77
2022/06/23 11:21:51;;;;;;;14.65;13.15;;;28.20;99.90;;;;;;5092997;28;20089;-77
2022/06/23 11:24:30;;;;;;;13.80;12.02;;;28.20;99.90;;;;;;5074520;28;20040;-76
2022/06/23 11:27:10;;;;;;;13.00;11.70;;;27.90;99.90;;;;;;5093036;28;20047;-76
2022/06/23 11:30:02;;;;;;;13.55;12.05;;;27.30;99.90;;;;;;5075212;28;20044;-75
2022/06/23 11:32:44;;;;;;;12.98;11.48;;;27.20;99.90;;;;;;5092461;28;20040;-76
2022/06/23 11:35:30;;;;;;;13.52;11.02;;;27.40;99.90;;;;;;5095191;28;20437;-77
2022/06/23 11:38:13;;;;;;;12.52;10.90;;;27.50;99.90;;;;;;5097281;28;20089;-77
2022/06/23 11:40:57;;;;;;;13.00;11.07;;;27.30;99.90;;;;;;5096425;28;20047;-75
2022/06/23 11:43:32;;;;;;;12.00;10.77;;;27.50;99.90;;;;;;5096763;28;20040;-76
2022/06/23 11:46:26;;;;;;;14.35;11.15;;;27.30;99.90;;;;;;5078558;28;20483;-76
2022/06/23 11:49:07;;;;;;;12.32;9.45;;;27.30;99.90;;;;;;5093674;28;20048;-76
2022/06/23 11:51:58;;;;;;;11.98;9.20;;;28.10;99.90;;;;;;5096174;28;20447;-77
2022/06/23 11:54:48;;;;;;;9.45;8.55;;;28.60;99.90;;;;;;5095908;28;20043;-77
2022/06/23 11:57:37;;;;;;;11.80;8.25;;;28.60;99.90;;;;;;5078171;28;20113;-76
2022/06/23 12:00:10;;;;;;;10.93;8.65;;;29.20;99.90;;;;;;5105169;28;20073;-77
2022/06/23 12:02:49;;;;;;;14.70;11.18;;;28.80;99.90;;;;;;5096316;28;20453;-77
2022/06/23 12:05:23;;;;;;;11.05;7.93;;;28.80;99.90;;;;;;5096046;28;20499;-77
2022/06/23 12:08:08;;;;;;;12.30;8.32;;;28.90;99.90;;;;;;5095972;28;20159;-77
2022/06/23 12:10:37;;;;;;;8.90;7.10;;;28.80;99.90;;;;;;5095791;28;20505;-77
2022/06/23 12:13:06;;;;;;;7.53;6.43;;;29.30;99.90;;;;;;5096006;28;20043;-77
2022/06/23 12:15:41;;;;;;;8.15;6.13;;;29.20;99.90;;;;;;5095619;28;20060;-77
2022/06/23 12:18:13;;;;;;;10.82;6.97;;;29.20;99.90;;;;;;5078153;28;20044;-77
2022/06/23 12:20:48;;;;;;;9.00;6.88;;;29.00;99.90;;;;;;5095988;28;20036;-77
2022/06/23 12:23:23;;;;;;;9.73;6.80;;;29.00;99.90;;;;;;5095755;28;20115;-75
2022/06/23 12:26:02;;;;;;;8.13;6.30;;;29.00;99.90;;;;;;5095808;28;20040;-77
2022/06/23 12:28:36;;;;;;;10.27;6.80;;;28.80;99.90;;;;;;5095499;28;20058;-77
2022/06/23 12:31:14;;;;;;;12.60;6.27;;;29.30;99.90;;;;;;5075513;28;20047;-77
2022/06/23 12:33:48;;;;;;;8.82;5.78;;;28.60;99.90;;;;;;5094327;28;20491;-77
2022/06/23 12:36:21;;;;;;;10.05;7.97;;;28.30;99.90;;;;;;5095233;28;20048;-77
2022/06/23 12:38:53;;;;;;;8.38;7.32;;;27.50;99.90;;;;;;5076819;28;20138;-77
2022/06/23 12:41:28;;;;;;;9.30;6.57;;;27.50;99.90;;;;;;5095132;28;20191;-78
2022/06/23 12:44:00;;;;;;;9.88;6.22;;;27.20;99.90;;;;;;5094980;28;20449;-77
2022/06/23 12:46:39;;;;;;;7.70;6.63;;;27.30;99.90;;;;;;5076577;28;20040;-77
2022/06/23 12:49:30;;;;;;;11.18;6.97;;;27.40;99.90;;;;;;5094955;28;20086;-77
2022/06/23 12:52:13;;;;;;;9.48;6.55;;;27.70;99.90;;;;;;5094957;28;20101;-78
2022/06/23 12:55:02;;;;;;;10.88;5.93;;;28.20;99.90;;;;;;5095430;28;20123;-78
2022/06/23 12:57:51;;;;;;;8.70;6.57;;;28.40;99.90;;;;;;5084062;28;20040;-77
2022/06/23 13:00:22;;;;;;;10.32;5.93;;;28.80;99.90;;;;;;5095816;28;20384;-77
2022/06/23 13:02:56;;;;;;;6.50;5.45;;;28.60;99.90;;;;;;5076962;28;20503;-77
2022/06/23 13:05:29;;;;;;;6.07;4.50;;;28.70;99.90;;;;;;5094702;28;20032;-77
2022/06/23 13:08:03;;;;;;;5.68;4.32;;;28.60;99.90;;;;;;5094724;28;20093;-77
2022/06/23 13:10:36;;;;;;;7.70;4.07;;;28.10;99.90;;;;;;5094659;28;20044;-77
2022/06/23 13:13:09;;;;;;;5.15;4.50;;;28.20;99.90;;;;;;5076174;28;20426;-77
2022/06/23 13:15:44;;;;;;;8.18;4.57;;;27.80;99.90;;;;;;5095647;28;20036;-77
2022/06/23 13:18:23;;;;;;;7.63;5.10;;;27.40;99.90;;;;;;5078242;28;20051;-77
2022/06/23 13:20:55;;;;;;;5.25;4.25;;;26.90;99.90;;;;;;5094235;28;20043;-77
2022/06/23 13:23:25;;;;;;;6.43;4.88;;;26.60;99.90;;;;;;5096580;28;20048;-77
2022/06/23 13:25:56;;;;;;;10.52;6.35;;;26.30;99.90;;;;;;5099191;28;20048;-76
2022/06/23 13:28:32;;;;;;;16.40;13.55;;;26.40;99.90;;;;;;5097880;28;20044;-77
2022/06/23 13:31:08;;;;;;;8.45;5.68;;;26.60;99.90;;;;;;5078710;28;20044;-77